Time;durP1;ratioP1;P1;durP2;ratioP2;P2;SDS_P1;SDS_P2;PMS_P1;PMS_P2;Temp;Humidity;BMP_temperature;BMP_pressure;BME280_temperature;BME280_humidity;BME280_pressure;Samples;Min_cycle;Max_cycle;Signal;HPM_P1;HPM_P2
2022/05/31 00:01:02;;;;;;;3.93;2.90;;;7.20;1.00;;;;;;4964890;28;20868;-52
2022/05/31 00:03:27;;;;;;;3.50;3.00;;;7.20;1.00;;;;;;4964306;28;20218;-50
2022/05/31 00:05:53;;;;;;;3.77;3.27;;;7.20;1.00;;;;;;4964743;28;20220;-51
2022/05/31 00:08:18;;;;;;;3.20;2.90;;;7.20;1.00;;;;;;4964332;28;20201;-53
2022/05/31 00:10:44;;;;;;;5.13;3.17;;;7.10;1.00;;;;;;4964700;28;20185;-51
2022/05/31 00:13:10;;;;;;;4.30;2.77;;;7.10;1.00;;;;;;4960773;28;20189;-51
2022/05/31 00:15:35;;;;;;;3.73;3.33;;;7.00;1.00;;;;;;4960836;28;20908;-51
2022/05/31 00:18:01;;;;;;;5.30;2.90;;;7.00;1.00;;;;;;4965808;28;20246;-51
2022/05/31 00:20:26;;;;;;;4.50;3.30;;;6.90;1.00;;;;;;4965492;28;20189;-54
2022/05/31 00:22:52;;;;;;;3.70;3.20;;;6.90;1.00;;;;;;4969706;28;20239;-52
2022/05/31 00:25:18;;;;;;;6.23;2.97;;;6.80;1.00;;;;;;4962604;28;20200;-51
2022/05/31 00:27:44;;;;;;;5.57;3.40;;;6.80;1.00;;;;;;4966578;28;20472;-51
2022/05/31 00:30:11;;;;;;;3.93;3.10;;;6.80;1.00;;;;;;4966104;28;20221;-52
2022/05/31 00:32:41;;;;;;;5.17;3.87;;;6.70;21.10;;;;;;4958067;28;20436;-50
2022/05/31 00:35:12;;;;;;;4.27;3.67;;;6.80;31.80;;;;;;4967672;28;21111;-52
2022/05/31 00:37:38;;;;;;;5.87;4.00;;;6.70;21.50;;;;;;4961645;28;20452;-51
2022/05/31 00:40:04;;;;;;;7.27;4.10;;;6.70;1.00;;;;;;4959670;28;20479;-53
2022/05/31 00:42:53;;;;;;;4.90;3.87;;;6.60;1.00;;;;;;4967791;28;20215;-51
2022/05/31 00:45:20;;;;;;;12.67;4.07;;;6.60;83.50;;;;;;4964698;28;20433;-45
2022/05/31 00:47:47;;;;;;;8.30;4.77;;;6.60;60.20;;;;;;4960141;28;20556;-46
2022/05/31 00:50:32;;;;;;;6.00;4.10;;;6.60;99.90;;;;;;4969689;28;20492;-46
2022/05/31 00:53:07;;;;;;;6.93;4.10;;;6.60;99.90;;;;;;4967810;28;21263;-46
2022/05/31 00:55:42;;;;;;;4.30;3.67;;;6.60;99.90;;;;;;4971748;28;20542;-45
2022/05/31 00:58:17;;;;;;;8.57;4.30;;;6.60;1.00;;;;;;4970680;28;20830;-46
2022/05/31 01:00:43;;;;;;;4.93;3.57;;;6.60;1.00;;;;;;4962936;28;20458;-46
2022/05/31 01:03:20;;;;;;;4.97;3.90;;;6.60;1.00;;;;;;4965434;28;20441;-46
2022/05/31 01:05:45;;;;;;;6.40;4.30;;;6.60;1.00;;;;;;4968815;28;20475;-46
2022/05/31 01:08:12;;;;;;;6.53;4.43;;;6.60;29.20;;;;;;4971664;28;20925;-46
2022/05/31 01:10:41;;;;;;;7.10;3.87;;;6.60;99.90;;;;;;4970716;28;20296;-46
2022/05/31 01:13:08;;;;;;;6.33;4.10;;;6.60;1.00;;;;;;4965245;28;20568;-46
2022/05/31 01:15:34;;;;;;;4.83;3.90;;;6.50;1.00;;;;;;4969830;28;20877;-47
2022/05/31 01:17:59;;;;;;;5.00;3.97;;;6.50;99.90;;;;;;4970990;28;20432;-47
2022/05/31 01:20:25;;;;;;;5.90;3.50;;;6.50;22.60;;;;;;4966409;28;20268;-47
2022/05/31 01:22:57;;;;;;;6.83;4.03;;;6.50;1.00;;;;;;4965494;28;20194;-46
2022/05/31 01:25:29;;;;;;;4.10;3.70;;;6.50;1.00;;;;;;4970093;28;20189;-47
2022/05/31 01:28:16;;;;;;;5.27;3.90;;;6.40;99.90;;;;;;4965415;28;20485;-47
2022/05/31 01:30:50;;;;;;;4.93;3.90;;;6.50;1.00;;;;;;4968483;28;20915;-46
2022/05/31 01:33:26;;;;;;;3.90;3.50;;;6.40;1.00;;;;;;4963063;28;20445;-46
2022/05/31 01:35:53;;;;;;;6.70;3.70;;;6.40;1.00;;;;;;4969053;28;20464;-48
2022/05/31 01:38:27;;;;;;;7.47;4.77;;;6.40;99.90;;;;;;4968592;28;20447;-47
2022/05/31 01:41:02;;;;;;;9.53;5.37;;;6.40;99.90;;;;;;4969061;28;20427;-46
2022/05/31 01:43:27;;;;;;;6.50;4.37;;;6.40;1.00;;;;;;4963727;28;20979;-46
2022/05/31 01:46:01;;;;;;;5.60;4.70;;;6.40;99.90;;;;;;4972280;28;20440;-47
2022/05/31 01:48:30;;;;;;;5.30;4.00;;;6.50;99.90;;;;;;4967144;28;20357;-47
2022/05/31 01:50:56;;;;;;;7.43;5.10;;;6.40;94.00;;;;;;4967684;28;20487;-47
2022/05/31 01:53:22;;;;;;;6.27;4.60;;;6.40;99.90;;;;;;4963503;28;20834;-46
2022/05/31 01:55:48;;;;;;;12.50;4.77;;;6.40;1.00;;;;;;4966433;28;20483;-46
2022/05/31 01:58:21;;;;;;;7.27;5.20;;;6.40;1.00;;;;;;4965531;28;20188;-46
2022/05/31 02:00:47;;;;;;;8.73;4.53;;;6.40;99.90;;;;;;4967180;28;20444;-46
2022/05/31 02:03:16;;;;;;;6.80;4.40;;;6.40;1.00;;;;;;4959241;28;20445;-46
2022/05/31 02:05:50;;;;;;;6.00;4.53;;;6.40;99.90;;;;;;4970042;28;20671;-46
2022/05/31 02:08:18;;;;;;;10.20;5.50;;;6.40;1.00;;;;;;4967850;28;20523;-47
2022/05/31 02:10:45;;;;;;;6.33;4.93;;;6.30;99.90;;;;;;4964787;28;20478;-46
2022/05/31 02:13:11;;;;;;;8.13;5.03;;;6.30;99.90;;;;;;4962114;28;20445;-47
2022/05/31 02:15:36;;;;;;;6.60;4.73;;;6.30;1.00;;;;;;4967016;28;20481;-46
2022/05/31 02:18:02;;;;;;;8.23;5.33;;;6.20;99.90;;;;;;4967775;28;20495;-46
2022/05/31 02:20:28;;;;;;;6.97;5.03;;;6.20;99.90;;;;;;4965449;28;20186;-46
2022/05/31 02:22:53;;;;;;;7.13;4.80;;;6.10;99.90;;;;;;4971775;28;20279;-46
2022/05/31 02:25:19;;;;;;;6.23;4.77;;;6.10;1.00;;;;;;4962985;28;20197;-47
2022/05/31 02:27:45;;;;;;;8.40;4.70;;;6.00;1.00;;;;;;4969545;28;20189;-46
2022/05/31 02:30:12;;;;;;;6.90;4.50;;;6.00;99.90;;;;;;4965863;28;20193;-47
2022/05/31 02:32:38;;;;;;;5.10;4.60;;;6.00;99.90;;;;;;4963818;28;20813;-46
2022/05/31 02:35:06;;;;;;;7.27;4.70;;;5.90;1.00;;;;;;4965196;28;20575;-46
2022/05/31 02:37:32;;;;;;;6.47;4.80;;;5.90;1.00;;;;;;4966164;28;20509;-46
2022/05/31 02:39:58;;;;;;;8.30;4.30;;;5.90;1.00;;;;;;4967722;28;20436;-46
2022/05/31 02:42:24;;;;;;;6.90;4.10;;;5.90;1.00;;;;;;4969421;28;20432;-48
2022/05/31 02:44:51;;;;;;;5.77;4.60;;;5.80;1.00;;;;;;4969908;28;20236;-47
2022/05/31 02:47:17;;;;;;;8.80;4.63;;;5.80;1.00;;;;;;4968172;28;20450;-46
2022/05/31 02:49:44;;;;;;;8.80;4.60;;;5.80;79.90;;;;;;4967248;28;20448;-46
2022/05/31 02:52:10;;;;;;;6.63;5.00;;;5.80;99.90;;;;;;4959871;28;20202;-46
2022/05/31 02:54:35;;;;;;;6.73;4.93;;;5.70;99.90;;;;;;4970816;28;20450;-46
2022/05/31 02:57:01;;;;;;;6.80;4.87;;;5.70;99.90;;;;;;4966902;28;20715;-46
2022/05/31 02:59:27;;;;;;;5.47;4.73;;;5.60;99.90;;;;;;4967455;28;20201;-47
2022/05/31 03:01:53;;;;;;;5.80;4.90;;;5.60;99.90;;;;;;4962122;28;20502;-46
2022/05/31 03:04:19;;;;;;;7.10;4.77;;;5.60;99.90;;;;;;4963666;28;20181;-47
2022/05/31 03:06:44;;;;;;;6.30;4.80;;;5.50;99.90;;;;;;4966442;28;20303;-46
2022/05/31 03:09:10;;;;;;;5.30;4.57;;;5.50;99.90;;;;;;4965446;28;20543;-46
2022/05/31 03:11:56;;;;;;;8.20;5.20;;;5.50;99.90;;;;;;4966458;28;20193;-46
2022/05/31 03:14:30;;;;;;;7.40;4.50;;;5.50;99.90;;;;;;4961376;28;20536;-47
2022/05/31 03:17:26;;;;;;;7.73;4.67;;;5.50;99.90;;;;;;4968859;28;20522;-46
2022/05/31 03:20:00;;;;;;;11.40;5.17;;;5.40;1.00;;;;;;4963346;28;20443;-54
2022/05/31 03:22:31;;;;;;;7.47;5.20;;;5.40;1.00;;;;;;4966151;28;20437;-54
2022/05/31 03:25:08;;;;;;;9.83;5.50;;;5.40;1.00;;;;;;4964033;28;20440;-53
2022/05/31 03:27:34;;;;;;;9.73;5.47;;;5.40;1.00;;;;;;4965828;28;20821;-53
2022/05/31 03:30:01;;;;;;;10.83;5.17;;;5.40;1.00;;;;;;4969508;28;20471;-54
2022/05/31 03:32:27;;;;;;;10.63;5.50;;;5.40;80.60;;;;;;4967832;28;20448;-52
2022/05/31 03:34:52;;;;;;;7.10;5.80;;;5.40;99.90;;;;;;4968706;28;20480;-53
2022/05/31 03:37:18;;;;;;;9.80;4.83;;;5.40;99.90;;;;;;4970893;28;20256;-52
2022/05/31 03:39:44;;;;;;;8.00;4.70;;;5.50;99.90;;;;;;4964595;28;20193;-53
2022/05/31 03:42:10;;;;;;;10.40;5.27;;;5.50;99.90;;;;;;4969960;28;20650;-54
2022/05/31 03:44:35;;;;;;;7.30;4.87;;;5.60;99.90;;;;;;4965243;28;20208;-54
2022/05/31 03:47:03;;;;;;;8.17;4.80;;;5.60;99.90;;;;;;4963191;28;20949;-53
2022/05/31 03:49:30;;;;;;;6.43;4.67;;;5.50;99.90;;;;;;4969510;28;20201;-52
2022/05/31 03:51:55;;;;;;;6.87;4.80;;;5.50;99.90;;;;;;4966539;28;20471;-53
2022/05/31 03:54:21;;;;;;;7.40;5.33;;;5.60;99.90;;;;;;4965673;28;20938;-53
2022/05/31 03:56:46;;;;;;;7.80;4.90;;;5.50;99.90;;;;;;4964894;28;20220;-53
2022/05/31 03:59:12;;;;;;;6.63;4.80;;;5.60;90.00;;;;;;4969711;28;20244;-52
2022/05/31 04:01:38;;;;;;;7.60;4.70;;;5.60;45.50;;;;;;4960985;28;20208;-53
2022/05/31 04:04:03;;;;;;;8.77;5.40;;;5.60;10.00;;;;;;4962299;28;20219;-54
2022/05/31 04:06:30;;;;;;;5.97;4.30;;;5.60;58.30;;;;;;4966341;28;20236;-53
2022/05/31 04:08:56;;;;;;;10.27;5.47;;;5.70;99.90;;;;;;4963105;28;20280;-53
2022/05/31 04:11:21;;;;;;;8.93;5.90;;;5.70;95.80;;;;;;4967235;28;20543;-52
2022/05/31 04:13:47;;;;;;;10.83;6.20;;;5.80;99.90;;;;;;4961684;28;20193;-51
2022/05/31 04:16:15;;;;;;;6.60;4.80;;;5.80;99.90;;;;;;4960648;28;20218;-53
2022/05/31 04:18:42;;;;;;;9.13;5.77;;;5.80;99.90;;;;;;4963024;28;20193;-53
2022/05/31 04:21:10;;;;;;;9.10;6.20;;;5.90;99.90;;;;;;4962342;28;20437;-53
2022/05/31 04:26:20;;;;;;;10.00;6.40;;;6.10;99.90;;;;;;4954810;28;20966;-53
2022/05/31 04:28:46;;;;;;;10.43;7.03;;;6.20;99.90;;;;;;4963761;28;20444;-54
2022/05/31 04:31:12;;;;;;;7.43;5.40;;;6.40;99.90;;;;;;4966480;28;20193;-53
2022/05/31 04:33:37;;;;;;;15.40;7.50;;;6.60;99.90;;;;;;4964568;28;20216;-53
2022/05/31 04:36:07;;;;;;;8.60;6.60;;;6.80;99.90;;;;;;4966384;28;20219;-50
2022/05/31 04:38:33;;;;;;;10.77;7.43;;;7.00;99.90;;;;;;4963433;28;20534;-53
2022/05/31 04:40:58;;;;;;;11.40;7.17;;;7.30;99.90;;;;;;4965327;28;21266;-53
2022/05/31 04:43:24;;;;;;;13.50;7.80;;;7.50;99.90;;;;;;4965584;28;20457;-53
2022/05/31 04:45:49;;;;;;;11.47;7.60;;;7.70;1.00;;;;;;4964129;28;20181;-52
2022/05/31 04:48:15;;;;;;;12.20;8.00;;;8.00;99.90;;;;;;4961011;28;20193;-52
2022/05/31 04:50:41;;;;;;;13.23;8.00;;;8.20;1.00;;;;;;4967785;28;20236;-46
2022/05/31 04:53:06;;;;;;;14.00;8.90;;;8.40;1.00;;;;;;4966414;28;20197;-47
2022/05/31 04:55:32;;;;;;;14.13;8.47;;;8.70;1.00;;;;;;4966338;28;20646;-47
2022/05/31 04:57:57;;;;;;;16.70;8.43;;;8.90;21.20;;;;;;4962096;28;20200;-46
2022/05/31 05:00:23;;;;;;;11.90;8.57;;;9.20;99.90;;;;;;4961276;28;20186;-46
2022/05/31 05:02:48;;;;;;;13.47;9.23;;;9.40;99.90;;;;;;4963853;28;20212;-46
2022/05/31 05:05:14;;;;;;;17.80;8.60;;;9.60;1.00;;;;;;4968078;28;20284;-47
2022/05/31 05:07:40;;;;;;;13.57;9.50;;;9.80;99.90;;;;;;4966304;28;20197;-46
2022/05/31 05:10:06;;;;;;;11.73;7.53;;;10.00;99.90;;;;;;4967360;28;20198;-47
2022/05/31 05:12:32;;;;;;;11.70;8.33;;;10.30;1.00;;;;;;4958701;28;20798;-47
2022/05/31 05:14:58;;;;;;;11.93;8.07;;;10.50;99.90;;;;;;4969287;28;20476;-47
2022/05/31 05:17:24;;;;;;;11.17;8.47;;;10.70;99.90;;;;;;4963651;28;20202;-46
2022/05/31 05:19:50;;;;;;;9.40;6.93;;;10.90;51.50;;;;;;4963487;28;20189;-47
2022/05/31 05:22:15;;;;;;;13.97;7.83;;;11.20;1.00;;;;;;4965596;28;20424;-46
2022/05/31 05:24:41;;;;;;;6.07;5.43;;;11.40;1.00;;;;;;4960073;28;20194;-46
2022/05/31 05:27:07;;;;;;;7.97;5.90;;;11.60;1.00;;;;;;4963724;28;20186;-46
2022/05/31 05:32:16;;;;;;;6.40;4.17;;;11.90;1.00;;;;;;4965314;28;20184;-46
2022/05/31 05:34:42;;;;;;;4.90;3.70;;;12.10;1.00;;;;;;4960338;28;20437;-47
2022/05/31 05:37:07;;;;;;;5.10;4.33;;;12.20;1.00;;;;;;4969520;28;20725;-46
2022/05/31 05:39:33;;;;;;;6.23;3.50;;;12.20;1.00;;;;;;4966824;28;20217;-46
2022/05/31 05:41:58;;;;;;;6.13;4.30;;;12.30;1.00;;;;;;4968094;28;20247;-46
2022/05/31 05:44:26;;;;;;;3.60;3.30;;;12.50;1.00;;;;;;4970052;28;20219;-47
2022/05/31 05:46:51;;;;;;;4.47;3.13;;;12.60;1.00;;;;;;4969163;28;20196;-47
2022/05/31 05:49:17;;;;;;;8.10;4.80;;;12.70;99.90;;;;;;4972530;28;20452;-46
2022/05/31 05:51:44;;;;;;;3.40;2.90;;;12.90;99.90;;;;;;4969156;28;20283;-46
2022/05/31 05:54:09;;;;;;;6.07;4.67;;;13.20;99.90;;;;;;4967037;28;20193;-46
2022/05/31 05:56:35;;;;;;;1.93;1.77;;;13.40;99.90;;;;;;4971323;28;20478;-46
2022/05/31 05:59:01;;;;;;;3.00;2.03;;;13.40;99.90;;;;;;4969401;28;20821;-47
2022/05/31 06:01:43;;;;;;;4.50;1.80;;;13.60;99.90;;;;;;4969777;28;20184;-47
2022/05/31 06:04:35;;;;;;;4.03;2.03;;;13.80;99.90;;;;;;4964946;28;20989;-46
2022/05/31 06:07:25;;;;;;;3.07;2.20;;;13.90;99.90;;;;;;4964879;28;20433;-49
2022/05/31 06:10:22;;;;;;;1.83;1.67;;;14.00;99.90;;;;;;4966461;28;20447;-49
2022/05/31 06:13:01;;;;;;;2.60;1.70;;;14.20;99.90;;;;;;4958186;28;20826;-49
2022/05/31 06:15:31;;;;;;;2.13;1.47;;;14.30;99.90;;;;;;4969013;28;20472;-49
2022/05/31 06:17:59;;;;;;;1.73;1.63;;;14.60;99.90;;;;;;4981910;28;20433;-49
2022/05/31 06:20:26;;;;;;;2.30;1.50;;;14.80;99.90;;;;;;4957329;28;20441;-50
2022/05/31 06:22:52;;;;;;;3.50;1.73;;;15.00;99.90;;;;;;4972609;28;20429;-48
2022/05/31 06:25:22;;;;;;;3.13;1.67;;;15.00;99.90;;;;;;4968305;28;21228;-48
2022/05/31 06:27:48;;;;;;;1.43;1.33;;;15.10;99.90;;;;;;4961495;28;20996;-50
2022/05/31 06:30:14;;;;;;;1.83;1.60;;;15.20;99.90;;;;;;4964965;28;20512;-50
2022/05/31 06:32:39;;;;;;;3.17;1.80;;;15.20;99.90;;;;;;4962361;28;20293;-49
2022/05/31 06:35:06;;;;;;;3.27;1.57;;;15.30;99.90;;;;;;4967366;28;20563;-49
2022/05/31 06:37:32;;;;;;;2.80;1.57;;;15.40;99.90;;;;;;4966093;28;21257;-49
2022/05/31 06:39:57;;;;;;;1.50;1.40;;;15.50;99.90;;;;;;4969203;28;20440;-50
2022/05/31 06:42:23;;;;;;;3.87;1.50;;;15.50;99.90;;;;;;4965250;28;20224;-49
2022/05/31 06:44:49;;;;;;;1.67;1.30;;;15.70;99.90;;;;;;4969108;28;20531;-49
2022/05/31 06:47:15;;;;;;;2.13;1.50;;;15.80;99.90;;;;;;4970119;28;20819;-49
2022/05/31 06:49:41;;;;;;;2.83;1.40;;;15.90;99.90;;;;;;4964675;28;20196;-49
2022/05/31 06:57:40;;;;;;;7.23;1.60;;;16.60;99.90;;;;;;4969128;28;20478;-50
2022/05/31 07:00:08;;;;;;;2.67;2.00;;;17.00;99.90;;;;;;4967397;28;20452;-49
2022/05/31 07:02:34;;;;;;;3.63;1.60;;;16.90;99.90;;;;;;4966184;28;20844;-49
2022/05/31 07:05:00;;;;;;;3.20;1.80;;;16.80;99.90;;;;;;4963703;28;20842;-49
2022/05/31 07:07:25;;;;;;;2.03;1.30;;;16.80;99.90;;;;;;4961373;28;20467;-50
2022/05/31 07:09:52;;;;;;;3.83;1.10;;;17.00;99.90;;;;;;4965896;28;20192;-49
2022/05/31 07:12:18;;;;;;;1.60;1.20;;;17.00;99.90;;;;;;4963314;28;20186;-47
2022/05/31 07:14:43;;;;;;;2.70;1.23;;;16.90;99.90;;;;;;4962029;28;20787;-48
2022/05/31 07:17:09;;;;;;;1.53;1.43;;;16.60;99.90;;;;;;4966153;28;20472;-48
2022/05/31 07:19:35;;;;;;;3.87;1.80;;;16.30;99.90;;;;;;4964876;28;20173;-47
2022/05/31 07:22:01;;;;;;;1.90;1.57;;;16.10;99.90;;;;;;4965899;28;20579;-48
2022/05/31 07:24:29;;;;;;;1.90;1.53;;;15.60;99.90;;;;;;4969262;28;20760;-48
2022/05/31 07:26:55;;;;;;;4.30;1.60;;;15.40;99.90;;;;;;4968184;28;20499;-47
2022/05/31 07:29:21;;;;;;;2.13;1.93;;;15.40;99.90;;;;;;4967886;28;20432;-47
2022/05/31 07:31:47;;;;;;;3.37;1.70;;;15.50;99.90;;;;;;4960931;28;20207;-48
2022/05/31 07:34:14;;;;;;;3.33;1.90;;;16.00;99.90;;;;;;4962790;28;20436;-48
2022/05/31 07:36:41;;;;;;;2.80;1.90;;;16.30;99.90;;;;;;4965014;28;20209;-48
2022/05/31 07:39:11;;;;;;;5.40;2.20;;;16.50;99.90;;;;;;4959216;28;20436;-48
2022/05/31 07:41:37;;;;;;;2.77;2.13;;;16.60;99.90;;;;;;4960510;28;20457;-48
2022/05/31 07:44:02;;;;;;;3.73;2.33;;;16.20;99.90;;;;;;4963246;28;20437;-48
2022/05/31 07:46:29;;;;;;;2.37;2.07;;;16.00;99.90;;;;;;4966946;28;20189;-48
2022/05/31 07:48:57;;;;;;;4.13;2.03;;;16.40;99.90;;;;;;4966126;28;20635;-48
2022/05/31 07:51:25;;;;;;;3.40;1.80;;;16.70;99.90;;;;;;4961318;28;20491;-48
2022/05/31 07:53:51;;;;;;;3.33;1.90;;;16.90;99.90;;;;;;4958883;28;20440;-48
2022/05/31 07:56:17;;;;;;;4.60;2.93;;;17.10;99.90;;;;;;4963634;28;20465;-48
2022/05/31 07:58:44;;;;;;;3.57;2.20;;;17.60;99.90;;;;;;4966297;28;20424;-48
2022/05/31 08:01:13;;;;;;;2.90;2.20;;;18.20;99.90;;;;;;4959709;28;20926;-48
2022/05/31 08:03:39;;;;;;;2.20;1.70;;;18.80;99.90;;;;;;4965263;28;20428;-48
2022/05/31 08:06:10;;;;;;;1.90;1.73;;;19.00;99.90;;;;;;4964130;28;21322;-45
2022/05/31 08:08:36;;;;;;;5.43;1.93;;;19.20;99.90;;;;;;4962042;28;20428;-45
2022/05/31 08:11:08;;;;;;;4.03;2.20;;;19.30;99.90;;;;;;4966656;28;20429;-45
2022/05/31 08:13:34;;;;;;;4.73;1.77;;;18.60;99.90;;;;;;4959580;28;20905;-45
2022/05/31 08:16:01;;;;;;;4.53;2.00;;;18.40;99.90;;;;;;4966489;28;20473;-45
2022/05/31 08:18:27;;;;;;;3.37;2.03;;;18.20;99.90;;;;;;4958987;28;20912;-45
2022/05/31 08:21:09;;;;;;;4.13;1.40;;;18.00;99.90;;;;;;4963876;28;20523;-45
2022/05/31 08:23:34;;;;;;;2.50;1.93;;;18.00;99.90;;;;;;4967058;28;20421;-45
2022/05/31 08:26:01;;;;;;;7.13;2.03;;;17.90;99.90;;;;;;4959738;28;20818;-45
2022/05/31 08:28:27;;;;;;;5.50;2.30;;;17.70;99.90;;;;;;4960764;28;20268;-45
2022/05/31 08:30:56;;;;;;;3.50;2.30;;;17.50;99.90;;;;;;4966812;28;20526;-46
2022/05/31 08:33:24;;;;;;;3.07;2.80;;;17.30;99.90;;;;;;4966491;28;20946;-45
2022/05/31 08:35:50;;;;;;;4.27;2.80;;;17.30;99.90;;;;;;4960396;28;20476;-46
2022/05/31 08:38:16;;;;;;;4.33;2.87;;;17.20;99.90;;;;;;4964834;28;20424;-46
2022/05/31 08:41:07;;;;;;;2.20;1.80;;;17.40;99.90;;;;;;4960341;28;20302;-45
2022/05/31 08:43:51;;;;;;;4.53;2.80;;;17.60;99.90;;;;;;4966379;28;20252;-45
2022/05/31 08:46:22;;;;;;;5.00;2.73;;;17.60;99.90;;;;;;4960311;28;20541;-45
2022/05/31 08:49:10;;;;;;;4.03;2.43;;;17.50;99.90;;;;;;4959024;28;21320;-45
2022/05/31 08:52:04;;;;;;;4.70;2.10;;;17.80;99.90;;;;;;4963948;28;20487;-45
2022/05/31 08:57:43;;;;;;;3.73;3.23;;;17.80;99.90;;;;;;4967093;28;20446;-45
2022/05/31 09:00:25;;;;;;;3.30;2.20;;;17.50;99.90;;;;;;4965763;28;20548;-45
2022/05/31 09:03:20;;;;;;;2.13;1.77;;;17.30;99.90;;;;;;4958488;28;20446;-45
2022/05/31 09:05:58;;;;;;;2.10;1.90;;;17.40;99.90;;;;;;4964323;28;20456;-45
2022/05/31 09:08:37;;;;;;;6.43;2.50;;;18.00;99.90;;;;;;4970279;28;20590;-45
2022/05/31 09:11:26;;;;;;;2.80;2.00;;;18.30;99.90;;;;;;4962058;28;20428;-45
2022/05/31 09:14:02;;;;;;;4.73;2.40;;;18.60;99.90;;;;;;4967166;28;20432;-45
2022/05/31 09:17:01;;;;;;;5.03;2.83;;;18.80;99.90;;;;;;4970885;28;20464;-46
2022/05/31 09:19:37;;;;;;;5.13;2.63;;;19.30;99.90;;;;;;4972823;28;20777;-46
2022/05/31 09:22:06;;;;;;;4.30;3.10;;;20.40;99.90;;;;;;4968659;28;20428;-45
2022/05/31 09:24:32;;;;;;;2.97;2.67;;;20.70;99.90;;;;;;4967327;28;20432;-46
2022/05/31 09:27:14;;;;;;;4.60;2.73;;;20.90;99.90;;;;;;4959495;28;20478;-45
2022/05/31 09:30:01;;;;;;;4.00;2.40;;;21.20;99.90;;;;;;4970117;28;20450;-45
2022/05/31 09:32:48;;;;;;;2.27;1.70;;;20.80;99.90;;;;;;4966206;28;20484;-45
2022/05/31 09:35:29;;;;;;;2.07;1.87;;;20.10;99.90;;;;;;4964736;28;20820;-45
2022/05/31 09:38:15;;;;;;;2.27;1.70;;;19.20;99.90;;;;;;4971225;28;20439;-45
2022/05/31 09:41:05;;;;;;;2.60;2.07;;;18.70;99.90;;;;;;4964324;28;20444;-45
2022/05/31 09:43:49;;;;;;;8.13;1.90;;;18.40;99.90;;;;;;4967118;28;20468;-45
2022/05/31 09:46:29;;;;;;;2.07;1.87;;;18.20;99.90;;;;;;4965974;28;20945;-45
2022/05/31 09:48:57;;;;;;;3.87;2.00;;;18.10;99.90;;;;;;4969321;28;20887;-45
2022/05/31 09:51:41;;;;;;;6.20;1.87;;;18.10;99.90;;;;;;4962087;28;20487;-45
2022/05/31 09:57:08;;;;;;;4.00;1.80;;;18.10;99.90;;;;;;4964638;28;20578;-45
2022/05/31 09:59:39;;;;;;;2.00;1.80;;;18.30;99.90;;;;;;4967124;28;20590;-45
2022/05/31 10:02:31;;;;;;;4.70;2.60;;;18.20;99.90;;;;;;4966182;28;20437;-45
2022/05/31 10:05:14;;;;;;;4.53;3.07;;;18.00;99.90;;;;;;4964453;28;20433;-46
2022/05/31 10:07:41;;;;;;;4.40;2.47;;;17.90;99.90;;;;;;4961258;28;20515;-45
2022/05/31 10:10:10;;;;;;;4.27;2.10;;;17.80;99.90;;;;;;4966471;28;20801;-45
2022/05/31 10:12:47;;;;;;;3.57;2.23;;;17.80;99.90;;;;;;4964821;28;20460;-45
2022/05/31 10:15:37;;;;;;;2.60;1.93;;;17.90;99.90;;;;;;4966618;28;20499;-46
2022/05/31 10:18:05;;;;;;;1.97;1.80;;;18.00;99.90;;;;;;4958041;28;21220;-46
2022/05/31 10:20:31;;;;;;;4.63;2.07;;;17.80;99.90;;;;;;4961438;28;20439;-46
2022/05/31 10:23:03;;;;;;;3.47;2.10;;;17.60;99.90;;;;;;4963446;28;21264;-45
2022/05/31 10:25:40;;;;;;;6.13;3.07;;;17.60;99.90;;;;;;4967464;28;20781;-46
2022/05/31 10:28:12;;;;;;;2.17;1.97;;;17.70;99.90;;;;;;4964050;28;20937;-46
2022/05/31 10:30:39;;;;;;;3.30;2.40;;;17.80;99.90;;;;;;4965601;28;20985;-45
2022/05/31 10:33:09;;;;;;;2.33;1.90;;;17.90;99.90;;;;;;4962911;28;20489;-45
2022/05/31 10:35:46;;;;;;;3.27;2.17;;;18.00;99.90;;;;;;4963088;28;20512;-46
2022/05/31 10:38:18;;;;;;;2.90;2.07;;;18.30;99.90;;;;;;4961242;28;20448;-45
2022/05/31 10:40:55;;;;;;;1.60;1.40;;;18.60;99.90;;;;;;4965920;28;20438;-46
2022/05/31 10:43:40;;;;;;;2.67;1.70;;;18.60;99.90;;;;;;4969929;28;20193;-45
2022/05/31 10:46:24;;;;;;;2.30;1.23;;;18.90;99.90;;;;;;4960826;28;20431;-46
2022/05/31 10:48:53;;;;;;;2.15;1.50;;;20.00;99.90;;;;;;4969346;28;20458;-46
2022/05/31 10:51:34;;;;;;;3.17;1.70;;;20.90;99.90;;;;;;4963278;28;20240;-45
2022/05/31 10:54:31;;;;;;;6.40;1.77;;;21.80;99.90;;;;;;4965976;28;20453;-45
2022/05/31 10:57:08;;;;;;;3.27;1.70;;;22.20;99.90;;;;;;4967062;28;20499;-46
2022/05/31 10:59:41;;;;;;;2.13;1.60;;;22.50;99.90;;;;;;4971048;28;20432;-46
2022/05/31 11:02:25;;;;;;;2.80;1.87;;;23.10;99.90;;;;;;4959364;28;20938;-46
2022/05/31 11:05:21;;;;;;;1.77;1.67;;;23.40;99.90;;;;;;4968060;28;20412;-45
2022/05/31 11:14:07;;;;;;;2.50;1.00;;;23.50;99.90;;;;;;4960188;28;20858;-45
2022/05/31 11:16:51;;;;;;;2.13;1.37;;;23.60;99.90;;;;;;4961633;28;20460;-45
2022/05/31 11:19:29;;;;;;;3.07;1.23;;;23.90;99.90;;;;;;4966593;28;20428;-46
2022/05/31 11:22:36;;;;;;;1.77;1.40;;;23.60;99.90;;;;;;4961870;28;20914;-45
2022/05/31 11:25:33;;;;;;;2.70;1.27;;;23.60;99.90;;;;;;4961445;28;20456;-45
2022/05/31 11:28:17;;;;;;;6.87;1.60;;;24.10;99.90;;;;;;4968402;28;20424;-45
2022/05/31 11:31:04;;;;;;;1.10;0.90;;;24.40;99.90;;;;;;4965259;28;20921;-46
2022/05/31 11:33:43;;;;;;;3.03;1.17;;;25.00;99.90;;;;;;4963728;28;20425;-46
2022/05/31 11:36:27;;;;;;;3.27;1.20;;;25.80;99.90;;;;;;4965926;28;20559;-46
2022/05/31 11:39:23;;;;;;;2.90;1.77;;;26.10;99.90;;;;;;4959151;28;20908;-46
2022/05/31 11:42:10;;;;;;;2.80;1.33;;;26.00;99.90;;;;;;4966484;28;20425;-46
2022/05/31 11:45:14;;;;;;;1.10;1.00;;;25.70;99.90;;;;;;4961775;28;20430;-46
2022/05/31 11:47:52;;;;;;;3.10;1.30;;;25.40;99.90;;;;;;4966334;28;20519;-47
2022/05/31 11:50:21;;;;;;;1.50;1.07;;;25.30;99.90;;;;;;4964363;28;20578;-46
2022/05/31 11:53:03;;;;;;;1.67;1.10;;;24.40;99.90;;;;;;4960186;28;20434;-46
2022/05/31 11:55:38;;;;;;;2.20;1.20;;;23.50;99.90;;;;;;4961579;28;20518;-44
2022/05/31 11:58:17;;;;;;;3.33;1.30;;;23.60;99.90;;;;;;4961610;28;20436;-44
2022/05/31 12:00:54;;;;;;;3.70;1.07;;;23.50;99.90;;;;;;4964521;28;20443;-44
2022/05/31 12:04:00;;;;;;;2.03;1.33;;;23.80;99.90;;;;;;4961550;28;20444;-44
2022/05/31 12:06:53;;;;;;;1.70;1.07;;;24.30;99.90;;;;;;4960330;28;20440;-44
2022/05/31 12:09:30;;;;;;;1.43;1.30;;;23.50;99.90;;;;;;4966459;28;20930;-46
2022/05/31 12:12:13;;;;;;;1.87;1.13;;;22.60;99.90;;;;;;4961983;28;20879;-46
2022/05/31 12:14:46;;;;;;;1.30;1.20;;;21.90;99.90;;;;;;4965536;28;20446;-47
2022/05/31 12:17:12;;;;;;;3.00;1.03;;;21.60;99.90;;;;;;4960010;28;20505;-48
2022/05/31 12:20:03;;;;;;;2.03;1.13;;;21.30;99.90;;;;;;4962505;28;20449;-49
2022/05/31 12:23:03;;;;;;;2.43;1.30;;;21.40;99.90;;;;;;4964662;28;20453;-47
2022/05/31 12:25:36;;;;;;;1.17;1.07;;;21.50;99.90;;;;;;4950938;28;20484;-48
2022/05/31 12:28:26;;;;;;;1.77;1.13;;;21.50;99.90;;;;;;4962892;28;20495;-46
2022/05/31 12:30:52;;;;;;;1.67;1.10;;;21.40;99.90;;;;;;4962908;28;20444;-47
2022/05/31 12:33:47;;;;;;;3.30;1.60;;;21.00;99.90;;;;;;4965138;28;20451;-46
2022/05/31 12:36:24;;;;;;;1.83;1.20;;;20.60;99.90;;;;;;4953775;28;20240;-48
2022/05/31 12:39:06;;;;;;;1.93;1.37;;;20.30;99.90;;;;;;4967137;28;20444;-47
2022/05/31 12:41:45;;;;;;;2.50;1.53;;;20.10;99.90;;;;;;4963183;28;20433;-47
2022/05/31 12:44:26;;;;;;;4.30;1.07;;;19.90;99.90;;;;;;4959653;28;20788;-47
2022/05/31 12:46:53;;;;;;;1.93;1.10;;;19.70;99.90;;;;;;4960304;28;20537;-46
2022/05/31 12:49:24;;;;;;;1.90;1.20;;;19.50;99.90;;;;;;4957709;28;20433;-47
2022/05/31 12:54:54;;;;;;;1.50;1.00;;;19.40;99.90;;;;;;4959144;28;20436;-47
2022/05/31 12:57:20;;;;;;;2.37;1.27;;;19.50;99.90;;;;;;4963201;28;20448;-47
2022/05/31 12:59:48;;;;;;;2.90;1.50;;;19.40;99.90;;;;;;4968893;28;21143;-47
2022/05/31 13:02:28;;;;;;;1.00;1.00;;;19.30;99.90;;;;;;4960810;28;20201;-48
2022/05/31 13:04:57;;;;;;;2.07;1.30;;;19.30;99.90;;;;;;4966485;28;20959;-47
2022/05/31 13:07:41;;;;;;;1.33;1.23;;;19.10;99.90;;;;;;4961646;28;20433;-46
2022/05/31 13:10:31;;;;;;;2.70;1.20;;;19.20;99.90;;;;;;4962854;28;20863;-47
2022/05/31 13:19:38;;;;;;;1.77;1.40;;;20.10;99.90;;;;;;4966564;28;20527;-47
2022/05/31 13:21:32;;;;;;;1.50;1.40;;;20.20;99.90;;;;;;4959572;28;20597;-47
2022/05/31 13:24:05;;;;;;;1.20;1.10;;;20.10;99.90;;;;;;4968393;28;20516;-47
2022/05/31 13:26:33;;;;;;;3.90;1.33;;;19.90;99.90;;;;;;4965830;28;20666;-47
2022/05/31 13:29:01;;;;;;;3.13;1.30;;;19.80;99.90;;;;;;4964662;28;20434;-47
2022/05/31 13:31:30;;;;;;;1.10;1.00;;;19.80;99.90;;;;;;4968839;28;20463;-47
2022/05/31 13:34:02;;;;;;;4.70;1.40;;;19.70;99.90;;;;;;4966887;28;20520;-48
2022/05/31 13:36:39;;;;;;;1.87;1.17;;;19.70;99.90;;;;;;4964686;28;21027;-47
2022/05/31 13:39:09;;;;;;;2.97;1.43;;;19.70;99.90;;;;;;4962855;28;20436;-47
2022/05/31 13:41:48;;;;;;;2.40;1.17;;;19.80;99.90;;;;;;4960477;28;20580;-48
2022/05/31 13:44:20;;;;;;;2.80;1.10;;;19.80;99.90;;;;;;4961870;28;20704;-48
2022/05/31 13:46:46;;;;;;;1.43;1.20;;;19.90;99.90;;;;;;4959881;28;20475;-47
2022/05/31 13:49:21;;;;;;;3.93;1.10;;;19.90;99.90;;;;;;4963887;28;20443;-47